sensor_id;sensor_type;location;lat;lon;timestamp;P1;durP1;ratioP1;P2;durP2;ratioP2
23270;SDS011;11804;51.118;17.058;2022-11-15T00:01:15;106.80;;;56.23;;
23270;SDS011;11804;51.118;17.058;2022-11-15T00:03:46;109.57;;;56.23;;
23270;SDS011;11804;51.118;17.058;2022-11-15T00:06:15;103.80;;;56.63;;
23270;SDS011;11804;51.118;17.058;2022-11-15T00:08:43;107.60;;;56.93;;
23270;SDS011;11804;51.118;17.058;2022-11-15T00:11:13;117.03;;;62.07;;
23270;SDS011;11804;51.118;17.058;2022-11-15T00:13:41;108.53;;;56.43;;
23270;SDS011;11804;51.118;17.058;2022-11-15T00:16:15;107.07;;;57.07;;
23270;SDS011;11804;51.118;17.058;2022-11-15T00:18:39;107.40;;;57.53;;
23270;SDS011;11804;51.118;17.058;2022-11-15T00:21:11;111.50;;;56.90;;
23270;SDS011;11804;51.118;17.058;2022-11-15T00:23:39;107.17;;;56.60;;
23270;SDS011;11804;51.118;17.058;2022-11-15T00:26:07;109.23;;;57.63;;
23270;SDS011;11804;51.118;17.058;2022-11-15T00:28:40;114.83;;;57.03;;
23270;SDS011;11804;51.118;17.058;2022-11-15T00:31:10;103.33;;;56.60;;
23270;SDS011;11804;51.118;17.058;2022-11-15T00:33:42;103.63;;;56.07;;
23270;SDS011;11804;51.118;17.058;2022-11-15T00:36:11;102.43;;;55.60;;
23270;SDS011;11804;51.118;17.058;2022-11-15T00:38:44;108.07;;;55.70;;
23270;SDS011;11804;51.118;17.058;2022-11-15T00:41:08;110.07;;;56.27;;
23270;SDS011;11804;51.118;17.058;2022-11-15T00:43:36;106.83;;;55.50;;
23270;SDS011;11804;51.118;17.058;2022-11-15T00:46:05;110.10;;;55.17;;
23270;SDS011;11804;51.118;17.058;2022-11-15T00:48:35;98.60;;;52.97;;
23270;SDS011;11804;51.118;17.058;2022-11-15T00:51:06;99.83;;;54.03;;
23270;SDS011;11804;51.118;17.058;2022-11-15T00:53:33;105.03;;;56.83;;
23270;SDS011;11804;51.118;17.058;2022-11-15T00:56:01;104.93;;;55.70;;
23270;SDS011;11804;51.118;17.058;2022-11-15T00:58:29;115.20;;;58.80;;
23270;SDS011;11804;51.118;17.058;2022-11-15T01:00:56;109.80;;;58.90;;
23270;SDS011;11804;51.118;17.058;2022-11-15T01:03:25;110.27;;;58.77;;
23270;SDS011;11804;51.118;17.058;2022-11-15T01:05:53;112.37;;;58.80;;
23270;SDS011;11804;51.118;17.058;2022-11-15T01:08:20;106.53;;;56.43;;
23270;SDS011;11804;51.118;17.058;2022-11-15T01:10:48;103.30;;;55.77;;
23270;SDS011;11804;51.118;17.058;2022-11-15T01:13:15;104.13;;;55.33;;
23270;SDS011;11804;51.118;17.058;2022-11-15T01:15:43;108.97;;;55.67;;
23270;SDS011;11804;51.118;17.058;2022-11-15T01:18:10;105.43;;;54.83;;
23270;SDS011;11804;51.118;17.058;2022-11-15T01:20:41;111.37;;;57.50;;
23270;SDS011;11804;51.118;17.058;2022-11-15T01:23:09;106.93;;;54.77;;
23270;SDS011;11804;51.118;17.058;2022-11-15T01:25:37;107.97;;;54.13;;
23270;SDS011;11804;51.118;17.058;2022-11-15T01:28:04;106.07;;;54.27;;
23270;SDS011;11804;51.118;17.058;2022-11-15T01:30:32;97.37;;;54.07;;
23270;SDS011;11804;51.118;17.058;2022-11-15T01:32:59;99.00;;;53.53;;
23270;SDS011;11804;51.118;17.058;2022-11-15T01:35:27;103.30;;;53.77;;
23270;SDS011;11804;51.118;17.058;2022-11-15T01:37:54;104.27;;;53.77;;
23270;SDS011;11804;51.118;17.058;2022-11-15T01:40:22;108.13;;;54.93;;
23270;SDS011;11804;51.118;17.058;2022-11-15T01:42:50;99.60;;;53.20;;
23270;SDS011;11804;51.118;17.058;2022-11-15T01:45:17;99.40;;;53.60;;
23270;SDS011;11804;51.118;17.058;2022-11-15T01:47:48;102.57;;;52.90;;
23270;SDS011;11804;51.118;17.058;2022-11-15T01:50:17;98.50;;;52.93;;
23270;SDS011;11804;51.118;17.058;2022-11-15T01:52:51;106.50;;;54.83;;
23270;SDS011;11804;51.118;17.058;2022-11-15T01:55:21;104.53;;;55.73;;
23270;SDS011;11804;51.118;17.058;2022-11-15T01:57:53;103.00;;;54.87;;
23270;SDS011;11804;51.118;17.058;2022-11-15T02:00:23;103.87;;;55.23;;
23270;SDS011;11804;51.118;17.058;2022-11-15T02:02:51;104.90;;;54.70;;
23270;SDS011;11804;51.118;17.058;2022-11-15T02:05:18;99.27;;;53.30;;
23270;SDS011;11804;51.118;17.058;2022-11-15T02:07:46;104.77;;;53.30;;
23270;SDS011;11804;51.118;17.058;2022-11-15T02:10:19;99.23;;;53.10;;
23270;SDS011;11804;51.118;17.058;2022-11-15T02:12:48;105.87;;;52.63;;
23270;SDS011;11804;51.118;17.058;2022-11-15T02:15:17;101.10;;;52.13;;
23270;SDS011;11804;51.118;17.058;2022-11-15T02:28:50;104.37;;;52.70;;
23270;SDS011;11804;51.118;17.058;2022-11-15T02:34:39;97.87;;;50.97;;
23270;SDS011;11804;51.118;17.058;2022-11-15T02:40:11;108.23;;;54.87;;
23270;SDS011;11804;51.118;17.058;2022-11-15T02:43:00;104.43;;;53.10;;
23270;SDS011;11804;51.118;17.058;2022-11-15T02:45:44;112.30;;;53.47;;
23270;SDS011;11804;51.118;17.058;2022-11-15T02:48:17;108.13;;;52.90;;
23270;SDS011;11804;51.118;17.058;2022-11-15T02:50:46;101.77;;;52.63;;
23270;SDS011;11804;51.118;17.058;2022-11-15T02:53:14;106.77;;;52.77;;
23270;SDS011;11804;51.118;17.058;2022-11-15T02:55:46;101.20;;;52.93;;
23270;SDS011;11804;51.118;17.058;2022-11-15T03:01:16;98.17;;;52.53;;
23270;SDS011;11804;51.118;17.058;2022-11-15T03:03:48;107.93;;;50.53;;
23270;SDS011;11804;51.118;17.058;2022-11-15T03:06:35;93.20;;;48.60;;
23270;SDS011;11804;51.118;17.058;2022-11-15T03:11:39;105.83;;;53.43;;
23270;SDS011;11804;51.118;17.058;2022-11-15T03:14:18;99.30;;;51.50;;
23270;SDS011;11804;51.118;17.058;2022-11-15T03:17:03;98.70;;;50.57;;
23270;SDS011;11804;51.118;17.058;2022-11-15T03:22:30;104.70;;;51.90;;
23270;SDS011;11804;51.118;17.058;2022-11-15T03:25:07;103.00;;;52.23;;
23270;SDS011;11804;51.118;17.058;2022-11-15T03:27:41;98.57;;;50.47;;
23270;SDS011;11804;51.118;17.058;2022-11-15T03:30:13;101.33;;;52.50;;
23270;SDS011;11804;51.118;17.058;2022-11-15T03:32:44;108.87;;;54.30;;
23270;SDS011;11804;51.118;17.058;2022-11-15T03:35:17;103.80;;;53.17;;
23270;SDS011;11804;51.118;17.058;2022-11-15T03:40:45;98.83;;;50.77;;
23270;SDS011;11804;51.118;17.058;2022-11-15T03:43:24;102.00;;;52.17;;
23270;SDS011;11804;51.118;17.058;2022-11-15T03:46:06;98.87;;;50.10;;
23270;SDS011;11804;51.118;17.058;2022-11-15T03:48:40;101.57;;;51.70;;
23270;SDS011;11804;51.118;17.058;2022-11-15T03:51:08;105.80;;;50.83;;
23270;SDS011;11804;51.118;17.058;2022-11-15T03:53:38;108.63;;;53.03;;
23270;SDS011;11804;51.118;17.058;2022-11-15T03:56:08;101.17;;;50.47;;
23270;SDS011;11804;51.118;17.058;2022-11-15T03:58:35;101.13;;;51.27;;
23270;SDS011;11804;51.118;17.058;2022-11-15T04:01:04;101.37;;;51.73;;
23270;SDS011;11804;51.118;17.058;2022-11-15T04:03:32;98.67;;;50.87;;
23270;SDS011;11804;51.118;17.058;2022-11-15T04:05:59;100.07;;;50.50;;
23270;SDS011;11804;51.118;17.058;2022-11-15T04:08:27;97.47;;;51.23;;
23270;SDS011;11804;51.118;17.058;2022-11-15T04:10:54;93.83;;;49.43;;
23270;SDS011;11804;51.118;17.058;2022-11-15T04:13:25;92.37;;;48.93;;
23270;SDS011;11804;51.118;17.058;2022-11-15T04:15:53;98.13;;;50.57;;
23270;SDS011;11804;51.118;17.058;2022-11-15T04:18:23;101.67;;;51.40;;
23270;SDS011;11804;51.118;17.058;2022-11-15T04:20:51;98.00;;;50.33;;
23270;SDS011;11804;51.118;17.058;2022-11-15T04:23:37;95.60;;;49.57;;
23270;SDS011;11804;51.118;17.058;2022-11-15T04:26:19;100.50;;;51.70;;
23270;SDS011;11804;51.118;17.058;2022-11-15T04:28:49;94.30;;;49.10;;
23270;SDS011;11804;51.118;17.058;2022-11-15T04:31:35;97.53;;;50.33;;
23270;SDS011;11804;51.118;17.058;2022-11-15T04:34:02;99.33;;;51.20;;
23270;SDS011;11804;51.118;17.058;2022-11-15T04:36:30;92.47;;;48.83;;
23270;SDS011;11804;51.118;17.058;2022-11-15T04:39:15;99.73;;;49.87;;
23270;SDS011;11804;51.118;17.058;2022-11-15T04:41:43;97.10;;;50.90;;
23270;SDS011;11804;51.118;17.058;2022-11-15T04:44:10;96.70;;;49.40;;
23270;SDS011;11804;51.118;17.058;2022-11-15T04:46:38;92.23;;;47.53;;
23270;SDS011;11804;51.118;17.058;2022-11-15T04:49:05;97.40;;;49.67;;
23270;SDS011;11804;51.118;17.058;2022-11-15T04:51:33;92.37;;;46.63;;
23270;SDS011;11804;51.118;17.058;2022-11-15T04:54:02;101.47;;;50.33;;
23270;SDS011;11804;51.118;17.058;2022-11-15T04:56:29;97.30;;;48.63;;
23270;SDS011;11804;51.118;17.058;2022-11-15T04:58:57;93.60;;;48.33;;
23270;SDS011;11804;51.118;17.058;2022-11-15T05:01:24;100.23;;;50.40;;
23270;SDS011;11804;51.118;17.058;2022-11-15T05:03:52;98.03;;;48.83;;
23270;SDS011;11804;51.118;17.058;2022-11-15T05:06:37;91.20;;;47.67;;
23270;SDS011;11804;51.118;17.058;2022-11-15T05:09:05;92.57;;;48.70;;
23270;SDS011;11804;51.118;17.058;2022-11-15T05:11:32;91.70;;;48.83;;
23270;SDS011;11804;51.118;17.058;2022-11-15T05:14:00;87.23;;;46.37;;
23270;SDS011;11804;51.118;17.058;2022-11-15T05:16:27;92.10;;;46.77;;
23270;SDS011;11804;51.118;17.058;2022-11-15T05:18:55;100.07;;;48.80;;
23270;SDS011;11804;51.118;17.058;2022-11-15T05:21:23;99.23;;;49.83;;
23270;SDS011;11804;51.118;17.058;2022-11-15T05:23:51;98.30;;;47.93;;
23270;SDS011;11804;51.118;17.058;2022-11-15T05:26:18;103.30;;;51.83;;
23270;SDS011;11804;51.118;17.058;2022-11-15T05:28:46;97.40;;;50.97;;
23270;SDS011;11804;51.118;17.058;2022-11-15T05:31:15;117.13;;;57.03;;
23270;SDS011;11804;51.118;17.058;2022-11-15T05:33:43;105.90;;;53.73;;
23270;SDS011;11804;51.118;17.058;2022-11-15T05:36:13;107.57;;;55.53;;
23270;SDS011;11804;51.118;17.058;2022-11-15T05:38:54;106.73;;;54.63;;
23270;SDS011;11804;51.118;17.058;2022-11-15T05:41:26;115.97;;;56.97;;
23270;SDS011;11804;51.118;17.058;2022-11-15T05:43:55;112.17;;;55.13;;
23270;SDS011;11804;51.118;17.058;2022-11-15T05:46:23;109.53;;;55.23;;
23270;SDS011;11804;51.118;17.058;2022-11-15T05:48:51;110.73;;;53.27;;
23270;SDS011;11804;51.118;17.058;2022-11-15T05:51:21;103.20;;;51.67;;
23270;SDS011;11804;51.118;17.058;2022-11-15T05:53:51;106.93;;;56.23;;
23270;SDS011;11804;51.118;17.058;2022-11-15T05:56:20;111.93;;;53.80;;
23270;SDS011;11804;51.118;17.058;2022-11-15T05:58:47;110.63;;;52.53;;
23270;SDS011;11804;51.118;17.058;2022-11-15T06:01:15;108.33;;;54.03;;
23270;SDS011;11804;51.118;17.058;2022-11-15T06:03:45;102.93;;;50.13;;
23270;SDS011;11804;51.118;17.058;2022-11-15T06:06:13;97.97;;;51.13;;
23270;SDS011;11804;51.118;17.058;2022-11-15T06:08:40;101.43;;;51.13;;
23270;SDS011;11804;51.118;17.058;2022-11-15T06:11:08;104.77;;;52.07;;
23270;SDS011;11804;51.118;17.058;2022-11-15T06:13:36;96.13;;;49.20;;
23270;SDS011;11804;51.118;17.058;2022-11-15T06:16:03;93.50;;;49.97;;
23270;SDS011;11804;51.118;17.058;2022-11-15T06:18:32;100.57;;;49.27;;
23270;SDS011;11804;51.118;17.058;2022-11-15T06:21:00;97.43;;;50.40;;
23270;SDS011;11804;51.118;17.058;2022-11-15T06:23:28;95.57;;;48.20;;
23270;SDS011;11804;51.118;17.058;2022-11-15T06:26:00;95.50;;;48.77;;
23270;SDS011;11804;51.118;17.058;2022-11-15T06:28:31;105.23;;;49.97;;
23270;SDS011;11804;51.118;17.058;2022-11-15T06:31:07;96.63;;;49.67;;
23270;SDS011;11804;51.118;17.058;2022-11-15T06:33:37;97.00;;;48.57;;
23270;SDS011;11804;51.118;17.058;2022-11-15T06:36:07;103.63;;;50.87;;
23270;SDS011;11804;51.118;17.058;2022-11-15T06:38:36;100.77;;;48.97;;
23270;SDS011;11804;51.118;17.058;2022-11-15T06:41:04;108.27;;;56.90;;
23270;SDS011;11804;51.118;17.058;2022-11-15T06:43:34;113.67;;;54.03;;
23270;SDS011;11804;51.118;17.058;2022-11-15T06:46:04;114.77;;;54.03;;
23270;SDS011;11804;51.118;17.058;2022-11-15T06:48:32;115.87;;;56.47;;
23270;SDS011;11804;51.118;17.058;2022-11-15T06:51:00;102.43;;;52.40;;
23270;SDS011;11804;51.118;17.058;2022-11-15T06:53:30;102.80;;;53.93;;
23270;SDS011;11804;51.118;17.058;2022-11-15T06:55:58;112.50;;;54.20;;
23270;SDS011;11804;51.118;17.058;2022-11-15T06:58:30;103.70;;;55.57;;
23270;SDS011;11804;51.118;17.058;2022-11-15T07:01:04;118.87;;;57.93;;
23270;SDS011;11804;51.118;17.058;2022-11-15T07:03:28;99.77;;;51.67;;
23270;SDS011;11804;51.118;17.058;2022-11-15T07:05:56;98.87;;;54.03;;
23270;SDS011;11804;51.118;17.058;2022-11-15T07:08:26;108.43;;;60.17;;
23270;SDS011;11804;51.118;17.058;2022-11-15T07:10:57;103.37;;;53.77;;
23270;SDS011;11804;51.118;17.058;2022-11-15T07:13:28;102.80;;;51.60;;
23270;SDS011;11804;51.118;17.058;2022-11-15T07:16:04;96.93;;;50.93;;
23270;SDS011;11804;51.118;17.058;2022-11-15T07:18:37;95.97;;;50.40;;
23270;SDS011;11804;51.118;17.058;2022-11-15T07:21:06;102.50;;;54.50;;
23270;SDS011;11804;51.118;17.058;2022-11-15T07:23:36;108.33;;;58.60;;
23270;SDS011;11804;51.118;17.058;2022-11-15T07:26:04;101.63;;;56.23;;
23270;SDS011;11804;51.118;17.058;2022-11-15T07:28:33;96.27;;;52.03;;
23270;SDS011;11804;51.118;17.058;2022-11-15T07:31:02;101.63;;;51.57;;
23270;SDS011;11804;51.118;17.058;2022-11-15T07:33:30;100.00;;;52.33;;
23270;SDS011;11804;51.118;17.058;2022-11-15T07:35:59;92.17;;;49.57;;
23270;SDS011;11804;51.118;17.058;2022-11-15T07:38:27;99.60;;;51.67;;
23270;SDS011;11804;51.118;17.058;2022-11-15T07:40:56;96.80;;;49.70;;
23270;SDS011;11804;51.118;17.058;2022-11-15T07:43:25;92.63;;;51.03;;
23270;SDS011;11804;51.118;17.058;2022-11-15T07:45:54;98.97;;;52.03;;
23270;SDS011;11804;51.118;17.058;2022-11-15T07:48:23;100.17;;;50.57;;
23270;SDS011;11804;51.118;17.058;2022-11-15T07:50:50;96.93;;;50.47;;
23270;SDS011;11804;51.118;17.058;2022-11-15T07:53:18;88.47;;;48.93;;
23270;SDS011;11804;51.118;17.058;2022-11-15T07:55:45;90.90;;;49.90;;
23270;SDS011;11804;51.118;17.058;2022-11-15T07:58:13;94.77;;;51.70;;
23270;SDS011;11804;51.118;17.058;2022-11-15T08:00:40;90.83;;;52.13;;
23270;SDS011;11804;51.118;17.058;2022-11-15T08:03:09;95.93;;;51.40;;
23270;SDS011;11804;51.118;17.058;2022-11-15T08:05:38;103.60;;;56.50;;
23270;SDS011;11804;51.118;17.058;2022-11-15T08:08:08;101.93;;;54.40;;
23270;SDS011;11804;51.118;17.058;2022-11-15T08:10:37;111.90;;;58.83;;
23270;SDS011;11804;51.118;17.058;2022-11-15T08:13:05;100.43;;;52.07;;
23270;SDS011;11804;51.118;17.058;2022-11-15T08:15:35;88.63;;;49.73;;
23270;SDS011;11804;51.118;17.058;2022-11-15T08:18:04;89.67;;;49.10;;
23270;SDS011;11804;51.118;17.058;2022-11-15T08:20:39;91.10;;;52.87;;
23270;SDS011;11804;51.118;17.058;2022-11-15T08:23:09;94.87;;;51.83;;
23270;SDS011;11804;51.118;17.058;2022-11-15T08:25:38;91.37;;;52.27;;
23270;SDS011;11804;51.118;17.058;2022-11-15T08:28:07;90.00;;;50.10;;
23270;SDS011;11804;51.118;17.058;2022-11-15T08:30:37;88.63;;;49.87;;
23270;SDS011;11804;51.118;17.058;2022-11-15T08:33:10;87.23;;;49.90;;
23270;SDS011;11804;51.118;17.058;2022-11-15T08:35:38;91.13;;;49.43;;
23270;SDS011;11804;51.118;17.058;2022-11-15T08:38:07;86.37;;;50.93;;
23270;SDS011;11804;51.118;17.058;2022-11-15T08:40:35;90.67;;;50.63;;
23270;SDS011;11804;51.118;17.058;2022-11-15T08:43:03;80.50;;;48.03;;
23270;SDS011;11804;51.118;17.058;2022-11-15T08:45:31;76.27;;;47.27;;
23270;SDS011;11804;51.118;17.058;2022-11-15T08:48:01;73.73;;;45.30;;
23270;SDS011;11804;51.118;17.058;2022-11-15T08:50:29;78.50;;;47.90;;
23270;SDS011;11804;51.118;17.058;2022-11-15T08:52:57;70.40;;;41.13;;
23270;SDS011;11804;51.118;17.058;2022-11-15T08:55:26;63.10;;;39.73;;
23270;SDS011;11804;51.118;17.058;2022-11-15T08:57:56;61.33;;;39.17;;
23270;SDS011;11804;51.118;17.058;2022-11-15T09:00:24;64.97;;;41.20;;
23270;SDS011;11804;51.118;17.058;2022-11-15T09:02:51;73.83;;;43.90;;
23270;SDS011;11804;51.118;17.058;2022-11-15T09:05:19;72.90;;;42.33;;
23270;SDS011;11804;51.118;17.058;2022-11-15T09:07:46;72.90;;;42.50;;
23270;SDS011;11804;51.118;17.058;2022-11-15T09:10:14;68.23;;;41.23;;
23270;SDS011;11804;51.118;17.058;2022-11-15T09:12:42;57.83;;;38.30;;
23270;SDS011;11804;51.118;17.058;2022-11-15T09:15:09;54.83;;;35.80;;
23270;SDS011;11804;51.118;17.058;2022-11-15T09:17:37;53.87;;;35.10;;
23270;SDS011;11804;51.118;17.058;2022-11-15T09:20:05;55.87;;;34.33;;
23270;SDS011;11804;51.118;17.058;2022-11-15T09:22:34;55.00;;;36.77;;
23270;SDS011;11804;51.118;17.058;2022-11-15T09:25:02;51.27;;;35.20;;
23270;SDS011;11804;51.118;17.058;2022-11-15T09:27:30;49.27;;;34.13;;
23270;SDS011;11804;51.118;17.058;2022-11-15T09:29:58;47.05;;;33.65;;
23270;SDS011;11804;51.118;17.058;2022-11-15T09:32:30;55.03;;;33.48;;
23270;SDS011;11804;51.118;17.058;2022-11-15T09:34:56;46.85;;;33.13;;
23270;SDS011;11804;51.118;17.058;2022-11-15T09:37:24;49.60;;;33.40;;
23270;SDS011;11804;51.118;17.058;2022-11-15T09:39:52;51.85;;;33.38;;
23270;SDS011;11804;51.118;17.058;2022-11-15T09:50:52;46.13;;;32.45;;
23270;SDS011;11804;51.118;17.058;2022-11-15T09:56:09;45.40;;;33.13;;
23270;SDS011;11804;51.118;17.058;2022-11-15T09:58:54;50.63;;;32.13;;
23270;SDS011;11804;51.118;17.058;2022-11-15T10:01:31;42.30;;;33.78;;
23270;SDS011;11804;51.118;17.058;2022-11-15T10:04:03;46.63;;;34.08;;
23270;SDS011;11804;51.118;17.058;2022-11-15T10:06:31;42.40;;;33.23;;
23270;SDS011;11804;51.118;17.058;2022-11-15T10:11:35;46.68;;;34.15;;
23270;SDS011;11804;51.118;17.058;2022-11-15T10:14:10;47.62;;;35.40;;
23270;SDS011;11804;51.118;17.058;2022-11-15T10:16:48;49.50;;;35.65;;
23270;SDS011;11804;51.118;17.058;2022-11-15T10:27:40;43.92;;;30.97;;
23270;SDS011;11804;51.118;17.058;2022-11-15T10:30:14;53.55;;;32.67;;
23270;SDS011;11804;51.118;17.058;2022-11-15T10:32:44;50.70;;;30.95;;
23270;SDS011;11804;51.118;17.058;2022-11-15T10:37:51;44.23;;;29.55;;
23270;SDS011;11804;51.118;17.058;2022-11-15T10:40:21;42.88;;;29.72;;
23270;SDS011;11804;51.118;17.058;2022-11-15T10:43:03;44.38;;;27.62;;
23270;SDS011;11804;51.118;17.058;2022-11-15T10:45:28;42.67;;;26.70;;
23270;SDS011;11804;51.118;17.058;2022-11-15T10:50:44;46.75;;;28.83;;
23270;SDS011;11804;51.118;17.058;2022-11-15T10:55:53;55.90;;;31.65;;
23270;SDS011;11804;51.118;17.058;2022-11-15T11:01:15;48.73;;;30.12;;
23270;SDS011;11804;51.118;17.058;2022-11-15T11:06:51;41.10;;;28.45;;
23270;SDS011;11804;51.118;17.058;2022-11-15T11:09:33;42.25;;;29.87;;
23270;SDS011;11804;51.118;17.058;2022-11-15T11:12:04;46.50;;;30.43;;
23270;SDS011;11804;51.118;17.058;2022-11-15T11:14:34;49.47;;;29.50;;
23270;SDS011;11804;51.118;17.058;2022-11-15T11:17:15;50.33;;;29.10;;
23270;SDS011;11804;51.118;17.058;2022-11-15T11:19:49;42.87;;;26.73;;
23270;SDS011;11804;51.118;17.058;2022-11-15T11:36:57;36.73;;;22.17;;
23270;SDS011;11804;51.118;17.058;2022-11-15T11:48:14;35.43;;;22.87;;
23270;SDS011;11804;51.118;17.058;2022-11-15T11:50:53;34.23;;;21.50;;
23270;SDS011;11804;51.118;17.058;2022-11-15T11:53:28;48.87;;;23.63;;
23270;SDS011;11804;51.118;17.058;2022-11-15T11:55:58;48.40;;;24.80;;
23270;SDS011;11804;51.118;17.058;2022-11-15T11:58:32;32.03;;;20.87;;
23270;SDS011;11804;51.118;17.058;2022-11-15T12:03:56;31.50;;;21.30;;
23270;SDS011;11804;51.118;17.058;2022-11-15T12:06:50;32.33;;;21.27;;
23270;SDS011;11804;51.118;17.058;2022-11-15T12:09:21;30.13;;;19.50;;
23270;SDS011;11804;51.118;17.058;2022-11-15T12:15:12;34.13;;;21.30;;
23270;SDS011;11804;51.118;17.058;2022-11-15T12:17:40;27.17;;;19.47;;
23270;SDS011;11804;51.118;17.058;2022-11-15T12:20:25;28.70;;;18.63;;
23270;SDS011;11804;51.118;17.058;2022-11-15T12:23:13;31.83;;;19.53;;
23270;SDS011;11804;51.118;17.058;2022-11-15T12:28:15;30.57;;;17.70;;
23270;SDS011;11804;51.118;17.058;2022-11-15T12:30:49;36.77;;;18.30;;
23270;SDS011;11804;51.118;17.058;2022-11-15T12:33:30;22.10;;;15.73;;
23270;SDS011;11804;51.118;17.058;2022-11-15T12:36:05;26.33;;;15.77;;
23270;SDS011;11804;51.118;17.058;2022-11-15T12:41:22;26.80;;;16.47;;
23270;SDS011;11804;51.118;17.058;2022-11-15T12:43:51;27.90;;;17.40;;
23270;SDS011;11804;51.118;17.058;2022-11-15T12:48:55;22.10;;;15.90;;
23270;SDS011;11804;51.118;17.058;2022-11-15T12:51:21;20.60;;;14.77;;
23270;SDS011;11804;51.118;17.058;2022-11-15T12:53:51;21.40;;;14.73;;
23270;SDS011;11804;51.118;17.058;2022-11-15T12:56:19;27.67;;;16.73;;
23270;SDS011;11804;51.118;17.058;2022-11-15T12:58:58;21.23;;;15.13;;
23270;SDS011;11804;51.118;17.058;2022-11-15T13:06:55;20.37;;;15.40;;
23270;SDS011;11804;51.118;17.058;2022-11-15T13:12:11;24.90;;;17.87;;
23270;SDS011;11804;51.118;17.058;2022-11-15T13:14:51;21.67;;;15.47;;
23270;SDS011;11804;51.118;17.058;2022-11-15T13:20:16;21.87;;;14.73;;
23270;SDS011;11804;51.118;17.058;2022-11-15T13:22:47;23.13;;;17.07;;
23270;SDS011;11804;51.118;17.058;2022-11-15T13:31:24;27.23;;;17.00;;
23270;SDS011;11804;51.118;17.058;2022-11-15T13:34:02;27.47;;;18.13;;
23270;SDS011;11804;51.118;17.058;2022-11-15T13:36:31;28.00;;;17.87;;
23270;SDS011;11804;51.118;17.058;2022-11-15T13:39:05;21.30;;;16.67;;
23270;SDS011;11804;51.118;17.058;2022-11-15T13:41:34;27.57;;;17.00;;
23270;SDS011;11804;51.118;17.058;2022-11-15T13:44:03;27.87;;;17.27;;
23270;SDS011;11804;51.118;17.058;2022-11-15T13:46:33;39.23;;;18.20;;
23270;SDS011;11804;51.118;17.058;2022-11-15T13:49:07;39.87;;;19.13;;
23270;SDS011;11804;51.118;17.058;2022-11-15T13:54:27;22.87;;;15.17;;
23270;SDS011;11804;51.118;17.058;2022-11-15T13:57:00;26.80;;;18.07;;
23270;SDS011;11804;51.118;17.058;2022-11-15T13:59:34;27.53;;;16.70;;
23270;SDS011;11804;51.118;17.058;2022-11-15T14:02:01;25.53;;;18.30;;
23270;SDS011;11804;51.118;17.058;2022-11-15T14:04:45;30.10;;;19.60;;
23270;SDS011;11804;51.118;17.058;2022-11-15T14:07:22;25.17;;;17.27;;
23270;SDS011;11804;51.118;17.058;2022-11-15T14:09:52;31.03;;;19.57;;
23270;SDS011;11804;51.118;17.058;2022-11-15T14:12:32;28.37;;;19.00;;
23270;SDS011;11804;51.118;17.058;2022-11-15T14:14:57;28.47;;;18.47;;
23270;SDS011;11804;51.118;17.058;2022-11-15T14:19:59;24.90;;;17.47;;
23270;SDS011;11804;51.118;17.058;2022-11-15T14:22:28;39.07;;;19.77;;
23270;SDS011;11804;51.118;17.058;2022-11-15T14:25:16;43.10;;;19.27;;
23270;SDS011;11804;51.118;17.058;2022-11-15T14:28:07;26.57;;;17.90;;
23270;SDS011;11804;51.118;17.058;2022-11-15T14:30:32;33.37;;;19.43;;
23270;SDS011;11804;51.118;17.058;2022-11-15T14:32:59;30.93;;;20.10;;
23270;SDS011;11804;51.118;17.058;2022-11-15T14:35:28;31.93;;;21.70;;
23270;SDS011;11804;51.118;17.058;2022-11-15T14:37:56;29.30;;;19.00;;
23270;SDS011;11804;51.118;17.058;2022-11-15T14:40:25;29.83;;;19.30;;
23270;SDS011;11804;51.118;17.058;2022-11-15T14:42:52;31.60;;;19.60;;
23270;SDS011;11804;51.118;17.058;2022-11-15T14:45:20;32.37;;;20.17;;
23270;SDS011;11804;51.118;17.058;2022-11-15T14:47:49;32.90;;;20.33;;
23270;SDS011;11804;51.118;17.058;2022-11-15T14:50:17;33.63;;;20.43;;
23270;SDS011;11804;51.118;17.058;2022-11-15T14:52:48;33.73;;;19.70;;
23270;SDS011;11804;51.118;17.058;2022-11-15T14:55:20;36.43;;;20.93;;
23270;SDS011;11804;51.118;17.058;2022-11-15T14:57:49;34.83;;;20.53;;
23270;SDS011;11804;51.118;17.058;2022-11-15T15:00:20;31.63;;;20.07;;
23270;SDS011;11804;51.118;17.058;2022-11-15T15:02:51;31.70;;;20.87;;
23270;SDS011;11804;51.118;17.058;2022-11-15T15:05:27;36.80;;;21.47;;
23270;SDS011;11804;51.118;17.058;2022-11-15T15:07:50;39.83;;;24.00;;
23270;SDS011;11804;51.118;17.058;2022-11-15T15:10:21;38.60;;;23.40;;
23270;SDS011;11804;51.118;17.058;2022-11-15T15:12:49;38.60;;;22.40;;
23270;SDS011;11804;51.118;17.058;2022-11-15T15:15:23;34.30;;;20.70;;
23270;SDS011;11804;51.118;17.058;2022-11-15T15:17:47;30.27;;;21.30;;
23270;SDS011;11804;51.118;17.058;2022-11-15T15:20:15;33.03;;;21.07;;
23270;SDS011;11804;51.118;17.058;2022-11-15T15:22:47;36.07;;;21.50;;
23270;SDS011;11804;51.118;17.058;2022-11-15T15:27:53;29.27;;;20.57;;
23270;SDS011;11804;51.118;17.058;2022-11-15T15:30:22;37.77;;;22.97;;
23270;SDS011;11804;51.118;17.058;2022-11-15T15:32:50;41.10;;;24.70;;
23270;SDS011;11804;51.118;17.058;2022-11-15T15:35:18;47.33;;;25.57;;
23270;SDS011;11804;51.118;17.058;2022-11-15T15:37:48;45.83;;;24.43;;
23270;SDS011;11804;51.118;17.058;2022-11-15T15:40:19;37.30;;;23.10;;
23270;SDS011;11804;51.118;17.058;2022-11-15T15:42:49;37.53;;;23.47;;
23270;SDS011;11804;51.118;17.058;2022-11-15T15:45:17;42.00;;;25.00;;
23270;SDS011;11804;51.118;17.058;2022-11-15T15:47:46;37.80;;;24.10;;
23270;SDS011;11804;51.118;17.058;2022-11-15T15:50:23;42.80;;;25.67;;
23270;SDS011;11804;51.118;17.058;2022-11-15T15:52:55;45.77;;;27.60;;
23270;SDS011;11804;51.118;17.058;2022-11-15T15:55:25;50.47;;;29.13;;
23270;SDS011;11804;51.118;17.058;2022-11-15T15:57:53;46.37;;;28.03;;
23270;SDS011;11804;51.118;17.058;2022-11-15T16:00:22;46.70;;;27.77;;
23270;SDS011;11804;51.118;17.058;2022-11-15T16:02:51;50.97;;;28.87;;
23270;SDS011;11804;51.118;17.058;2022-11-15T16:05:19;55.87;;;32.20;;
23270;SDS011;11804;51.118;17.058;2022-11-15T16:07:49;54.23;;;31.27;;
23270;SDS011;11804;51.118;17.058;2022-11-15T16:12:47;52.93;;;31.87;;
23270;SDS011;11804;51.118;17.058;2022-11-15T16:15:15;53.17;;;32.10;;
23270;SDS011;11804;51.118;17.058;2022-11-15T16:17:47;49.83;;;30.50;;
23270;SDS011;11804;51.118;17.058;2022-11-15T16:20:41;47.13;;;29.93;;
23270;SDS011;11804;51.118;17.058;2022-11-15T16:23:06;47.50;;;30.23;;
23270;SDS011;11804;51.118;17.058;2022-11-15T16:25:43;48.77;;;30.90;;
23270;SDS011;11804;51.118;17.058;2022-11-15T16:28:26;54.93;;;30.60;;
23270;SDS011;11804;51.118;17.058;2022-11-15T16:31:04;60.97;;;37.13;;
23270;SDS011;11804;51.118;17.058;2022-11-15T16:33:28;51.00;;;34.40;;